sensor_id;sensor_type;location;lat;lon;timestamp;P1;durP1;ratioP1;P2;durP2;ratioP2
53903;SDS011;39812;52.430;16.936;2023-04-12T00:00:30;9.55;;;3.80;;
53903;SDS011;39812;52.430;16.936;2023-04-12T00:02:55;11.65;;;4.47;;
53903;SDS011;39812;52.430;16.936;2023-04-12T00:05:23;7.97;;;4.13;;
53903;SDS011;39812;52.430;16.936;2023-04-12T00:07:51;8.60;;;4.70;;
53903;SDS011;39812;52.430;16.936;2023-04-12T00:10:17;12.65;;;4.20;;
53903;SDS011;39812;52.430;16.936;2023-04-12T00:12:43;8.25;;;4.80;;
53903;SDS011;39812;52.430;16.936;2023-04-12T00:15:11;7.47;;;4.72;;
53903;SDS011;39812;52.430;16.936;2023-04-12T00:17:36;9.43;;;4.53;;
53903;SDS011;39812;52.430;16.936;2023-04-12T00:20:02;9.20;;;4.20;;
53903;SDS011;39812;52.430;16.936;2023-04-12T00:22:40;8.88;;;4.80;;
53903;SDS011;39812;52.430;16.936;2023-04-12T00:25:06;10.77;;;4.93;;
53903;SDS011;39812;52.430;16.936;2023-04-12T00:27:32;8.55;;;4.30;;
53903;SDS011;39812;52.430;16.936;2023-04-12T00:29:58;8.98;;;4.55;;
53903;SDS011;39812;52.430;16.936;2023-04-12T00:32:23;8.88;;;4.13;;
53903;SDS011;39812;52.430;16.936;2023-04-12T00:34:49;8.93;;;4.30;;
53903;SDS011;39812;52.430;16.936;2023-04-12T00:37:15;9.13;;;4.68;;
53903;SDS011;39812;52.430;16.936;2023-04-12T00:39:40;9.23;;;5.07;;
53903;SDS011;39812;52.430;16.936;2023-04-12T00:42:06;9.20;;;4.68;;
53903;SDS011;39812;52.430;16.936;2023-04-12T00:44:32;9.18;;;4.80;;
53903;SDS011;39812;52.430;16.936;2023-04-12T00:46:58;10.63;;;5.75;;
53903;SDS011;39812;52.430;16.936;2023-04-12T00:49:24;9.60;;;4.65;;
53903;SDS011;39812;52.430;16.936;2023-04-12T00:51:57;13.45;;;4.65;;
53903;SDS011;39812;52.430;16.936;2023-04-12T00:54:27;12.40;;;4.90;;
53903;SDS011;39812;52.430;16.936;2023-04-12T00:56:54;7.30;;;4.65;;
53903;SDS011;39812;52.430;16.936;2023-04-12T00:59:22;8.20;;;4.32;;
53903;SDS011;39812;52.430;16.936;2023-04-12T01:01:48;8.25;;;4.93;;
53903;SDS011;39812;52.430;16.936;2023-04-12T01:04:13;8.63;;;4.57;;
53903;SDS011;39812;52.430;16.936;2023-04-12T01:14:41;10.75;;;5.18;;
53903;SDS011;39812;52.430;16.936;2023-04-12T01:18:03;10.30;;;5.03;;
53903;SDS011;39812;52.430;16.936;2023-04-12T01:20:31;13.23;;;5.72;;
53903;SDS011;39812;52.430;16.936;2023-04-12T01:25:36;10.57;;;4.70;;
53903;SDS011;39812;52.430;16.936;2023-04-12T01:28:14;10.13;;;5.13;;
53903;SDS011;39812;52.430;16.936;2023-04-12T01:30:42;10.60;;;4.82;;
53903;SDS011;39812;52.430;16.936;2023-04-12T01:33:10;9.80;;;5.13;;
53903;SDS011;39812;52.430;16.936;2023-04-12T01:35:37;9.68;;;4.93;;
53903;SDS011;39812;52.430;16.936;2023-04-12T01:38:04;9.02;;;4.38;;
53903;SDS011;39812;52.430;16.936;2023-04-12T01:40:31;7.47;;;3.90;;
53903;SDS011;39812;52.430;16.936;2023-04-12T01:43:04;8.85;;;4.95;;
53903;SDS011;39812;52.430;16.936;2023-04-12T01:45:34;11.70;;;4.70;;
53903;SDS011;39812;52.430;16.936;2023-04-12T01:48:00;8.00;;;4.70;;
53903;SDS011;39812;52.430;16.936;2023-04-12T01:50:33;8.60;;;5.03;;
53903;SDS011;39812;52.430;16.936;2023-04-12T01:53:22;8.40;;;4.85;;
53903;SDS011;39812;52.430;16.936;2023-04-12T01:56:12;7.07;;;4.57;;
53903;SDS011;39812;52.430;16.936;2023-04-12T01:58:41;6.88;;;4.25;;
53903;SDS011;39812;52.430;16.936;2023-04-12T02:01:11;8.20;;;4.60;;
53903;SDS011;39812;52.430;16.936;2023-04-12T02:03:42;8.65;;;4.47;;
53903;SDS011;39812;52.430;16.936;2023-04-12T02:06:09;7.57;;;4.28;;
53903;SDS011;39812;52.430;16.936;2023-04-12T02:08:36;9.45;;;4.90;;
53903;SDS011;39812;52.430;16.936;2023-04-12T02:11:08;13.57;;;5.45;;
53903;SDS011;39812;52.430;16.936;2023-04-12T02:13:34;11.35;;;5.78;;
53903;SDS011;39812;52.430;16.936;2023-04-12T02:16:00;10.57;;;5.22;;
53903;SDS011;39812;52.430;16.936;2023-04-12T02:18:26;9.98;;;5.07;;
53903;SDS011;39812;52.430;16.936;2023-04-12T02:20:52;8.50;;;5.40;;
53903;SDS011;39812;52.430;16.936;2023-04-12T02:23:18;8.60;;;4.80;;
53903;SDS011;39812;52.430;16.936;2023-04-12T02:25:44;10.25;;;5.57;;
53903;SDS011;39812;52.430;16.936;2023-04-12T02:28:10;9.40;;;6.13;;
53903;SDS011;39812;52.430;16.936;2023-04-12T02:30:37;9.23;;;5.80;;
53903;SDS011;39812;52.430;16.936;2023-04-12T02:33:03;13.10;;;5.38;;
53903;SDS011;39812;52.430;16.936;2023-04-12T02:35:30;10.73;;;5.45;;
53903;SDS011;39812;52.430;16.936;2023-04-12T02:37:56;9.07;;;5.65;;
53903;SDS011;39812;52.430;16.936;2023-04-12T02:40:22;11.57;;;5.85;;
53903;SDS011;39812;52.430;16.936;2023-04-12T02:42:47;11.00;;;5.32;;
53903;SDS011;39812;52.430;16.936;2023-04-12T02:45:13;11.23;;;6.28;;
53903;SDS011;39812;52.430;16.936;2023-04-12T02:47:39;9.82;;;5.75;;
53903;SDS011;39812;52.430;16.936;2023-04-12T02:50:05;11.23;;;5.50;;
53903;SDS011;39812;52.430;16.936;2023-04-12T02:52:33;8.75;;;5.25;;
53903;SDS011;39812;52.430;16.936;2023-04-12T02:54:58;10.55;;;5.75;;
53903;SDS011;39812;52.430;16.936;2023-04-12T02:57:24;11.75;;;5.20;;
53903;SDS011;39812;52.430;16.936;2023-04-12T02:59:50;8.05;;;4.80;;
53903;SDS011;39812;52.430;16.936;2023-04-12T03:02:17;10.63;;;5.55;;
53903;SDS011;39812;52.430;16.936;2023-04-12T03:04:43;11.20;;;5.97;;
53903;SDS011;39812;52.430;16.936;2023-04-12T03:07:11;13.35;;;5.75;;
53903;SDS011;39812;52.430;16.936;2023-04-12T03:09:37;10.95;;;5.30;;
53903;SDS011;39812;52.430;16.936;2023-04-12T03:12:06;10.30;;;5.72;;
53903;SDS011;39812;52.430;16.936;2023-04-12T03:14:32;13.13;;;6.20;;
53903;SDS011;39812;52.430;16.936;2023-04-12T03:16:59;9.50;;;5.68;;
53903;SDS011;39812;52.430;16.936;2023-04-12T03:19:25;7.97;;;5.30;;
53903;SDS011;39812;52.430;16.936;2023-04-12T03:21:52;11.10;;;5.22;;
53903;SDS011;39812;52.430;16.936;2023-04-12T03:24:17;9.73;;;6.10;;
53903;SDS011;39812;52.430;16.936;2023-04-12T03:26:43;11.00;;;5.75;;
53903;SDS011;39812;52.430;16.936;2023-04-12T03:29:09;12.10;;;5.63;;
53903;SDS011;39812;52.430;16.936;2023-04-12T03:31:34;11.88;;;6.10;;
53903;SDS011;39812;52.430;16.936;2023-04-12T03:34:00;11.30;;;6.30;;
53903;SDS011;39812;52.430;16.936;2023-04-12T03:36:26;9.52;;;5.70;;
53903;SDS011;39812;52.430;16.936;2023-04-12T03:38:53;14.13;;;6.15;;
53903;SDS011;39812;52.430;16.936;2023-04-12T03:41:20;13.07;;;6.30;;
53903;SDS011;39812;52.430;16.936;2023-04-12T03:43:47;15.73;;;5.50;;
53903;SDS011;39812;52.430;16.936;2023-04-12T03:46:13;14.23;;;6.80;;
53903;SDS011;39812;52.430;16.936;2023-04-12T03:48:39;13.75;;;6.78;;
53903;SDS011;39812;52.430;16.936;2023-04-12T03:51:05;12.63;;;6.78;;
53903;SDS011;39812;52.430;16.936;2023-04-12T03:53:36;13.07;;;5.97;;
53903;SDS011;39812;52.430;16.936;2023-04-12T03:56:02;10.23;;;5.72;;
53903;SDS011;39812;52.430;16.936;2023-04-12T03:58:28;9.38;;;5.85;;
53903;SDS011;39812;52.430;16.936;2023-04-12T04:00:54;9.15;;;5.80;;
53903;SDS011;39812;52.430;16.936;2023-04-12T04:03:20;11.00;;;5.93;;
53903;SDS011;39812;52.430;16.936;2023-04-12T04:05:53;15.18;;;5.95;;
53903;SDS011;39812;52.430;16.936;2023-04-12T04:08:19;12.07;;;6.93;;
53903;SDS011;39812;52.430;16.936;2023-04-12T04:10:45;9.00;;;5.13;;
53903;SDS011;39812;52.430;16.936;2023-04-12T04:13:11;9.13;;;4.68;;
53903;SDS011;39812;52.430;16.936;2023-04-12T04:15:37;8.00;;;4.90;;
53903;SDS011;39812;52.430;16.936;2023-04-12T04:18:02;11.13;;;5.47;;
53903;SDS011;39812;52.430;16.936;2023-04-12T04:20:28;8.68;;;5.20;;
53903;SDS011;39812;52.430;16.936;2023-04-12T04:22:55;12.80;;;6.18;;
53903;SDS011;39812;52.430;16.936;2023-04-12T04:25:21;12.70;;;6.18;;
53903;SDS011;39812;52.430;16.936;2023-04-12T04:27:53;12.57;;;6.38;;
53903;SDS011;39812;52.430;16.936;2023-04-12T04:30:23;10.55;;;6.10;;
53903;SDS011;39812;52.430;16.936;2023-04-12T04:32:50;13.15;;;6.70;;
53903;SDS011;39812;52.430;16.936;2023-04-12T04:35:16;13.18;;;6.00;;
53903;SDS011;39812;52.430;16.936;2023-04-12T04:37:41;11.32;;;6.65;;
53903;SDS011;39812;52.430;16.936;2023-04-12T04:40:07;10.63;;;5.65;;
53903;SDS011;39812;52.430;16.936;2023-04-12T04:42:35;11.15;;;6.28;;
53903;SDS011;39812;52.430;16.936;2023-04-12T04:45:02;11.68;;;5.63;;
53903;SDS011;39812;52.430;16.936;2023-04-12T04:47:36;12.15;;;6.25;;
53903;SDS011;39812;52.430;16.936;2023-04-12T04:50:02;13.07;;;6.38;;
53903;SDS011;39812;52.430;16.936;2023-04-12T04:52:28;12.05;;;6.65;;
53903;SDS011;39812;52.430;16.936;2023-04-12T04:54:54;10.60;;;6.85;;
53903;SDS011;39812;52.430;16.936;2023-04-12T04:57:22;11.23;;;6.97;;
53903;SDS011;39812;52.430;16.936;2023-04-12T04:59:48;12.95;;;6.60;;
53903;SDS011;39812;52.430;16.936;2023-04-12T05:02:13;10.75;;;4.90;;
53903;SDS011;39812;52.430;16.936;2023-04-12T05:04:40;12.75;;;6.43;;
53903;SDS011;39812;52.430;16.936;2023-04-12T05:07:06;10.75;;;5.85;;
53903;SDS011;39812;52.430;16.936;2023-04-12T05:09:31;14.30;;;6.55;;
53903;SDS011;39812;52.430;16.936;2023-04-12T05:11:57;13.00;;;6.75;;
53903;SDS011;39812;52.430;16.936;2023-04-12T05:14:22;14.63;;;6.60;;
53903;SDS011;39812;52.430;16.936;2023-04-12T05:16:48;10.40;;;5.95;;
53903;SDS011;39812;52.430;16.936;2023-04-12T05:19:14;12.40;;;5.68;;
53903;SDS011;39812;52.430;16.936;2023-04-12T05:21:39;11.70;;;6.20;;
53903;SDS011;39812;52.430;16.936;2023-04-12T05:24:05;13.43;;;6.53;;
53903;SDS011;39812;52.430;16.936;2023-04-12T05:26:31;7.80;;;5.15;;
53903;SDS011;39812;52.430;16.936;2023-04-12T05:28:58;12.13;;;6.65;;
53903;SDS011;39812;52.430;16.936;2023-04-12T05:31:25;10.88;;;6.47;;
53903;SDS011;39812;52.430;16.936;2023-04-12T05:33:51;13.75;;;6.30;;
53903;SDS011;39812;52.430;16.936;2023-04-12T05:36:18;12.95;;;6.15;;
53903;SDS011;39812;52.430;16.936;2023-04-12T05:38:44;12.60;;;7.18;;
53903;SDS011;39812;52.430;16.936;2023-04-12T05:41:10;11.45;;;6.55;;
53903;SDS011;39812;52.430;16.936;2023-04-12T05:43:36;11.68;;;5.63;;
53903;SDS011;39812;52.430;16.936;2023-04-12T05:46:02;11.63;;;5.43;;
53903;SDS011;39812;52.430;16.936;2023-04-12T05:48:29;10.43;;;5.72;;
53903;SDS011;39812;52.430;16.936;2023-04-12T05:50:55;9.18;;;5.20;;
53903;SDS011;39812;52.430;16.936;2023-04-12T05:53:20;11.00;;;5.63;;
53903;SDS011;39812;52.430;16.936;2023-04-12T05:55:46;8.70;;;5.57;;
53903;SDS011;39812;52.430;16.936;2023-04-12T05:58:12;19.58;;;7.35;;
53903;SDS011;39812;52.430;16.936;2023-04-12T06:00:38;9.27;;;5.32;;
53903;SDS011;39812;52.430;16.936;2023-04-12T06:03:06;11.07;;;5.95;;
53903;SDS011;39812;52.430;16.936;2023-04-12T06:05:35;9.32;;;4.95;;
53903;SDS011;39812;52.430;16.936;2023-04-12T06:08:01;10.60;;;6.25;;
53903;SDS011;39812;52.430;16.936;2023-04-12T06:10:29;9.68;;;5.43;;
53903;SDS011;39812;52.430;16.936;2023-04-12T06:12:55;13.43;;;5.88;;
53903;SDS011;39812;52.430;16.936;2023-04-12T06:15:20;11.55;;;6.15;;
53903;SDS011;39812;52.430;16.936;2023-04-12T06:17:46;10.25;;;5.97;;
53903;SDS011;39812;52.430;16.936;2023-04-12T06:20:11;13.40;;;6.95;;
53903;SDS011;39812;52.430;16.936;2023-04-12T06:22:37;8.70;;;4.97;;
53903;SDS011;39812;52.430;16.936;2023-04-12T06:25:03;13.95;;;5.75;;
53903;SDS011;39812;52.430;16.936;2023-04-12T06:27:29;11.90;;;5.88;;
53903;SDS011;39812;52.430;16.936;2023-04-12T06:29:55;11.18;;;5.95;;
53903;SDS011;39812;52.430;16.936;2023-04-12T06:32:21;10.65;;;5.72;;
53903;SDS011;39812;52.430;16.936;2023-04-12T06:34:47;12.23;;;5.90;;
53903;SDS011;39812;52.430;16.936;2023-04-12T06:37:12;9.10;;;5.35;;
53903;SDS011;39812;52.430;16.936;2023-04-12T06:39:38;9.77;;;5.82;;
53903;SDS011;39812;52.430;16.936;2023-04-12T06:42:04;13.27;;;6.10;;
53903;SDS011;39812;52.430;16.936;2023-04-12T06:44:29;11.07;;;5.55;;
53903;SDS011;39812;52.430;16.936;2023-04-12T06:46:57;9.02;;;5.95;;
53903;SDS011;39812;52.430;16.936;2023-04-12T06:49:23;11.35;;;5.70;;
53903;SDS011;39812;52.430;16.936;2023-04-12T06:51:48;10.85;;;5.82;;
53903;SDS011;39812;52.430;16.936;2023-04-12T06:54:14;9.95;;;6.22;;
53903;SDS011;39812;52.430;16.936;2023-04-12T06:56:40;10.60;;;6.20;;
53903;SDS011;39812;52.430;16.936;2023-04-12T06:59:05;12.73;;;6.97;;
53903;SDS011;39812;52.430;16.936;2023-04-12T07:01:31;9.93;;;6.13;;
53903;SDS011;39812;52.430;16.936;2023-04-12T07:03:57;11.70;;;6.38;;
53903;SDS011;39812;52.430;16.936;2023-04-12T07:06:22;10.40;;;6.07;;
53903;SDS011;39812;52.430;16.936;2023-04-12T07:08:48;9.98;;;5.97;;
53903;SDS011;39812;52.430;16.936;2023-04-12T07:11:13;10.75;;;6.35;;
53903;SDS011;39812;52.430;16.936;2023-04-12T07:13:39;10.07;;;6.43;;
53903;SDS011;39812;52.430;16.936;2023-04-12T07:16:05;12.48;;;5.82;;
53903;SDS011;39812;52.430;16.936;2023-04-12T07:18:31;12.20;;;6.63;;
53903;SDS011;39812;52.430;16.936;2023-04-12T07:20:56;8.90;;;5.50;;
53903;SDS011;39812;52.430;16.936;2023-04-12T07:23:22;10.57;;;6.03;;
53903;SDS011;39812;52.430;16.936;2023-04-12T07:25:49;10.10;;;6.03;;
53903;SDS011;39812;52.430;16.936;2023-04-12T07:28:15;12.98;;;6.10;;
53903;SDS011;39812;52.430;16.936;2023-04-12T07:30:41;9.95;;;6.18;;
53903;SDS011;39812;52.430;16.936;2023-04-12T07:33:06;10.20;;;5.22;;
53903;SDS011;39812;52.430;16.936;2023-04-12T07:35:32;12.10;;;6.20;;
53903;SDS011;39812;52.430;16.936;2023-04-12T07:37:58;9.88;;;5.85;;
53903;SDS011;39812;52.430;16.936;2023-04-12T07:40:25;8.48;;;5.60;;
53903;SDS011;39812;52.430;16.936;2023-04-12T07:42:51;9.32;;;5.95;;
53903;SDS011;39812;52.430;16.936;2023-04-12T07:45:17;7.38;;;5.80;;
53903;SDS011;39812;52.430;16.936;2023-04-12T07:47:43;9.00;;;5.90;;
53903;SDS011;39812;52.430;16.936;2023-04-12T07:50:09;9.35;;;5.65;;
53903;SDS011;39812;52.430;16.936;2023-04-12T07:52:35;9.57;;;5.75;;
53903;SDS011;39812;52.430;16.936;2023-04-12T07:55:01;7.60;;;5.22;;
53903;SDS011;39812;52.430;16.936;2023-04-12T07:57:26;9.45;;;5.57;;
53903;SDS011;39812;52.430;16.936;2023-04-12T07:59:52;9.25;;;6.00;;
53903;SDS011;39812;52.430;16.936;2023-04-12T08:02:17;9.52;;;5.43;;
53903;SDS011;39812;52.430;16.936;2023-04-12T08:04:54;9.07;;;4.97;;
53903;SDS011;39812;52.430;16.936;2023-04-12T08:07:20;8.10;;;5.35;;
53903;SDS011;39812;52.430;16.936;2023-04-12T08:09:46;10.25;;;4.90;;
53903;SDS011;39812;52.430;16.936;2023-04-12T08:12:12;8.48;;;5.68;;
53903;SDS011;39812;52.430;16.936;2023-04-12T08:14:38;8.38;;;5.70;;
53903;SDS011;39812;52.430;16.936;2023-04-12T08:17:04;10.35;;;4.65;;
53903;SDS011;39812;52.430;16.936;2023-04-12T08:19:30;9.63;;;5.20;;
53903;SDS011;39812;52.430;16.936;2023-04-12T08:21:56;7.70;;;4.50;;
53903;SDS011;39812;52.430;16.936;2023-04-12T08:24:22;7.45;;;4.75;;
53903;SDS011;39812;52.430;16.936;2023-04-12T08:26:48;7.25;;;4.93;;
53903;SDS011;39812;52.430;16.936;2023-04-12T08:29:15;8.70;;;4.85;;
53903;SDS011;39812;52.430;16.936;2023-04-12T08:31:41;8.55;;;5.35;;
53903;SDS011;39812;52.430;16.936;2023-04-12T08:34:06;13.80;;;6.68;;
53903;SDS011;39812;52.430;16.936;2023-04-12T08:36:32;8.93;;;5.65;;
53903;SDS011;39812;52.430;16.936;2023-04-12T08:38:58;8.35;;;5.55;;
53903;SDS011;39812;52.430;16.936;2023-04-12T08:41:25;10.48;;;5.40;;
53903;SDS011;39812;52.430;16.936;2023-04-12T08:43:51;9.93;;;6.13;;
53903;SDS011;39812;52.430;16.936;2023-04-12T08:46:19;8.15;;;5.47;;
53903;SDS011;39812;52.430;16.936;2023-04-12T08:48:47;9.07;;;5.80;;
53903;SDS011;39812;52.430;16.936;2023-04-12T08:51:15;8.68;;;5.50;;
53903;SDS011;39812;52.430;16.936;2023-04-12T08:53:42;11.27;;;5.88;;
53903;SDS011;39812;52.430;16.936;2023-04-12T08:56:11;8.85;;;5.90;;
53903;SDS011;39812;52.430;16.936;2023-04-12T08:58:38;11.63;;;6.60;;
53903;SDS011;39812;52.430;16.936;2023-04-12T09:01:09;11.23;;;5.95;;
53903;SDS011;39812;52.430;16.936;2023-04-12T09:03:38;11.38;;;6.30;;
53903;SDS011;39812;52.430;16.936;2023-04-12T09:06:04;9.55;;;5.10;;
53903;SDS011;39812;52.430;16.936;2023-04-12T09:08:30;6.60;;;3.65;;
53903;SDS011;39812;52.430;16.936;2023-04-12T09:10:56;4.70;;;3.65;;
53903;SDS011;39812;52.430;16.936;2023-04-12T09:13:31;5.20;;;3.20;;
53903;SDS011;39812;52.430;16.936;2023-04-12T09:15:58;7.00;;;3.53;;
53903;SDS011;39812;52.430;16.936;2023-04-12T09:18:24;6.13;;;3.90;;
53903;SDS011;39812;52.430;16.936;2023-04-12T09:20:53;7.90;;;4.35;;
53903;SDS011;39812;52.430;16.936;2023-04-12T09:23:31;5.38;;;3.63;;
53903;SDS011;39812;52.430;16.936;2023-04-12T09:25:56;5.00;;;3.30;;
53903;SDS011;39812;52.430;16.936;2023-04-12T09:28:23;6.00;;;4.15;;
53903;SDS011;39812;52.430;16.936;2023-04-12T09:30:51;6.88;;;3.97;;
53903;SDS011;39812;52.430;16.936;2023-04-12T09:33:21;7.22;;;3.70;;
53903;SDS011;39812;52.430;16.936;2023-04-12T09:35:58;9.55;;;3.35;;
53903;SDS011;39812;52.430;16.936;2023-04-12T09:38:25;5.22;;;3.40;;
53903;SDS011;39812;52.430;16.936;2023-04-12T09:40:51;5.25;;;3.03;;
53903;SDS011;39812;52.430;16.936;2023-04-12T09:43:18;6.18;;;3.75;;
53903;SDS011;39812;52.430;16.936;2023-04-12T09:45:44;6.80;;;4.00;;
53903;SDS011;39812;52.430;16.936;2023-04-12T09:48:17;7.18;;;4.30;;
53903;SDS011;39812;52.430;16.936;2023-04-12T09:53:14;6.30;;;4.25;;
53903;SDS011;39812;52.430;16.936;2023-04-12T09:55:42;5.85;;;3.65;;
53903;SDS011;39812;52.430;16.936;2023-04-12T09:58:08;6.10;;;4.13;;
53903;SDS011;39812;52.430;16.936;2023-04-12T10:00:35;5.55;;;4.40;;
53903;SDS011;39812;52.430;16.936;2023-04-12T10:03:01;5.47;;;4.15;;
53903;SDS011;39812;52.430;16.936;2023-04-12T10:05:27;6.03;;;3.90;;
53903;SDS011;39812;52.430;16.936;2023-04-12T10:07:53;6.70;;;4.43;;
53903;SDS011;39812;52.430;16.936;2023-04-12T10:10:19;6.80;;;3.95;;
53903;SDS011;39812;52.430;16.936;2023-04-12T10:12:45;5.88;;;3.50;;
53903;SDS011;39812;52.430;16.936;2023-04-12T10:15:12;6.07;;;3.88;;
53903;SDS011;39812;52.430;16.936;2023-04-12T10:17:50;5.40;;;3.05;;
53903;SDS011;39812;52.430;16.936;2023-04-12T10:20:17;5.55;;;2.88;;
53903;SDS011;39812;52.430;16.936;2023-04-12T10:22:45;4.22;;;3.10;;
53903;SDS011;39812;52.430;16.936;2023-04-12T10:25:16;5.10;;;3.08;;
53903;SDS011;39812;52.430;16.936;2023-04-12T10:27:44;4.68;;;2.85;;
53903;SDS011;39812;52.430;16.936;2023-04-12T10:30:24;3.92;;;2.75;;
53903;SDS011;39812;52.430;16.936;2023-04-12T10:35:29;4.68;;;2.70;;
53903;SDS011;39812;52.430;16.936;2023-04-12T10:38:13;3.65;;;2.38;;
53903;SDS011;39812;52.430;16.936;2023-04-12T10:41:06;5.45;;;2.75;;
53903;SDS011;39812;52.430;16.936;2023-04-12T10:43:34;5.77;;;3.30;;
53903;SDS011;39812;52.430;16.936;2023-04-12T10:46:00;5.38;;;2.53;;
53903;SDS011;39812;52.430;16.936;2023-04-12T10:48:29;5.25;;;2.83;;
53903;SDS011;39812;52.430;16.936;2023-04-12T10:53:38;5.63;;;3.15;;
53903;SDS011;39812;52.430;16.936;2023-04-12T10:59:03;6.70;;;3.40;;
53903;SDS011;39812;52.430;16.936;2023-04-12T11:01:33;4.75;;;3.25;;
53903;SDS011;39812;52.430;16.936;2023-04-12T11:04:18;3.50;;;2.33;;
53903;SDS011;39812;52.430;16.936;2023-04-12T11:09:17;5.25;;;2.35;;
53903;SDS011;39812;52.430;16.936;2023-04-12T11:11:56;4.07;;;2.42;;
53903;SDS011;39812;52.430;16.936;2023-04-12T11:14:28;6.90;;;3.40;;
53903;SDS011;39812;52.430;16.936;2023-04-12T11:22:16;5.43;;;3.25;;
53903;SDS011;39812;52.430;16.936;2023-04-12T11:24:44;6.15;;;3.10;;
53903;SDS011;39812;52.430;16.936;2023-04-12T11:27:12;6.20;;;3.22;;
53903;SDS011;39812;52.430;16.936;2023-04-12T11:29:38;5.47;;;3.45;;
53903;SDS011;39812;52.430;16.936;2023-04-12T11:32:04;5.35;;;2.97;;
53903;SDS011;39812;52.430;16.936;2023-04-12T11:34:34;4.63;;;3.13;;
53903;SDS011;39812;52.430;16.936;2023-04-12T11:37:01;5.63;;;3.20;;
53903;SDS011;39812;52.430;16.936;2023-04-12T11:39:32;6.15;;;3.17;;
53903;SDS011;39812;52.430;16.936;2023-04-12T11:42:01;6.82;;;3.45;;
53903;SDS011;39812;52.430;16.936;2023-04-12T11:44:27;5.03;;;3.42;;
53903;SDS011;39812;52.430;16.936;2023-04-12T11:46:53;5.03;;;3.33;;
53903;SDS011;39812;52.430;16.936;2023-04-12T11:49:20;6.22;;;3.25;;
53903;SDS011;39812;52.430;16.936;2023-04-12T11:51:47;8.05;;;3.58;;
53903;SDS011;39812;52.430;16.936;2023-04-12T11:54:13;5.20;;;3.33;;
53903;SDS011;39812;52.430;16.936;2023-04-12T11:56:39;7.07;;;3.85;;
53903;SDS011;39812;52.430;16.936;2023-04-12T11:59:05;6.72;;;3.75;;
53903;SDS011;39812;52.430;16.936;2023-04-12T12:01:34;6.72;;;3.90;;
53903;SDS011;39812;52.430;16.936;2023-04-12T12:04:01;6.18;;;3.60;;
53903;SDS011;39812;52.430;16.936;2023-04-12T12:06:27;4.90;;;3.55;;
53903;SDS011;39812;52.430;16.936;2023-04-12T12:08:53;6.90;;;3.80;;
53903;SDS011;39812;52.430;16.936;2023-04-12T12:11:20;4.85;;;3.42;;
53903;SDS011;39812;52.430;16.936;2023-04-12T12:16:26;5.72;;;3.95;;
53903;SDS011;39812;52.430;16.936;2023-04-12T12:18:53;5.73;;;3.83;;
53903;SDS011;39812;52.430;16.936;2023-04-12T12:21:20;6.78;;;3.85;;
53903;SDS011;39812;52.430;16.936;2023-04-12T12:23:46;5.63;;;3.55;;
53903;SDS011;39812;52.430;16.936;2023-04-12T12:26:25;4.65;;;3.47;;
53903;SDS011;39812;52.430;16.936;2023-04-12T12:28:55;3.90;;;3.00;;
53903;SDS011;39812;52.430;16.936;2023-04-12T12:31:23;4.95;;;3.30;;
53903;SDS011;39812;52.430;16.936;2023-04-12T12:33:54;8.15;;;3.25;;
53903;SDS011;39812;52.430;16.936;2023-04-12T12:36:27;5.85;;;3.08;;
53903;SDS011;39812;52.430;16.936;2023-04-12T12:39:06;5.15;;;2.83;;
53903;SDS011;39812;52.430;16.936;2023-04-12T12:41:34;3.95;;;2.92;;
53903;SDS011;39812;52.430;16.936;2023-04-12T12:44:00;6.63;;;2.70;;
53903;SDS011;39812;52.430;16.936;2023-04-12T12:46:26;4.95;;;3.13;;
53903;SDS011;39812;52.430;16.936;2023-04-12T12:48:52;3.95;;;2.95;;
53903;SDS011;39812;52.430;16.936;2023-04-12T12:51:17;3.75;;;2.70;;
53903;SDS011;39812;52.430;16.936;2023-04-12T12:53:46;3.72;;;2.60;;
53903;SDS011;39812;52.430;16.936;2023-04-12T12:56:12;4.03;;;2.67;;
53903;SDS011;39812;52.430;16.936;2023-04-12T12:58:39;4.00;;;2.78;;
53903;SDS011;39812;52.430;16.936;2023-04-12T13:01:05;3.97;;;2.78;;
53903;SDS011;39812;52.430;16.936;2023-04-12T13:03:31;2.72;;;2.17;;
53903;SDS011;39812;52.430;16.936;2023-04-12T13:05:57;5.80;;;2.58;;
53903;SDS011;39812;52.430;16.936;2023-04-12T13:08:23;4.20;;;2.80;;
53903;SDS011;39812;52.430;16.936;2023-04-12T13:10:49;4.57;;;2.88;;
53903;SDS011;39812;52.430;16.936;2023-04-12T13:13:16;3.78;;;2.67;;
53903;SDS011;39812;52.430;16.936;2023-04-12T13:15:42;3.72;;;2.72;;
53903;SDS011;39812;52.430;16.936;2023-04-12T13:18:07;5.22;;;2.72;;
53903;SDS011;39812;52.430;16.936;2023-04-12T13:20:33;6.20;;;2.80;;
53903;SDS011;39812;52.430;16.936;2023-04-12T13:22:59;5.53;;;3.45;;
53903;SDS011;39812;52.430;16.936;2023-04-12T13:25:25;4.90;;;3.00;;
53903;SDS011;39812;52.430;16.936;2023-04-12T13:27:51;4.35;;;2.85;;
53903;SDS011;39812;52.430;16.936;2023-04-12T13:30:17;4.47;;;3.03;;
53903;SDS011;39812;52.430;16.936;2023-04-12T13:32:43;4.78;;;2.63;;
53903;SDS011;39812;52.430;16.936;2023-04-12T13:35:09;4.93;;;2.80;;
53903;SDS011;39812;52.430;16.936;2023-04-12T13:37:35;4.10;;;2.67;;
53903;SDS011;39812;52.430;16.936;2023-04-12T13:40:01;3.42;;;2.58;;
53903;SDS011;39812;52.430;16.936;2023-04-12T13:42:27;4.28;;;2.42;;
53903;SDS011;39812;52.430;16.936;2023-04-12T13:44:53;4.80;;;2.70;;
53903;SDS011;39812;52.430;16.936;2023-04-12T13:47:19;3.50;;;2.42;;
53903;SDS011;39812;52.430;16.936;2023-04-12T13:49:45;4.43;;;2.80;;
53903;SDS011;39812;52.430;16.936;2023-04-12T13:52:11;4.35;;;2.22;;
53903;SDS011;39812;52.430;16.936;2023-04-12T13:54:36;3.15;;;2.17;;
53903;SDS011;39812;52.430;16.936;2023-04-12T13:57:02;3.00;;;2.20;;
53903;SDS011;39812;52.430;16.936;2023-04-12T13:59:29;5.00;;;2.30;;
53903;SDS011;39812;52.430;16.936;2023-04-12T14:01:55;3.35;;;2.00;;
53903;SDS011;39812;52.430;16.936;2023-04-12T14:04:20;3.05;;;2.17;;
53903;SDS011;39812;52.430;16.936;2023-04-12T14:06:46;2.63;;;1.55;;
53903;SDS011;39812;52.430;16.936;2023-04-12T14:09:25;3.08;;;1.60;;
53903;SDS011;39812;52.430;16.936;2023-04-12T14:11:55;3.30;;;1.60;;
53903;SDS011;39812;52.430;16.936;2023-04-12T14:14:22;2.55;;;1.27;;
53903;SDS011;39812;52.430;16.936;2023-04-12T14:16:49;2.88;;;1.40;;
53903;SDS011;39812;52.430;16.936;2023-04-12T14:19:17;1.52;;;1.20;;
53903;SDS011;39812;52.430;16.936;2023-04-12T14:21:43;3.13;;;1.50;;
53903;SDS011;39812;52.430;16.936;2023-04-12T14:24:09;2.60;;;1.27;;
53903;SDS011;39812;52.430;16.936;2023-04-12T14:26:35;2.67;;;1.10;;
53903;SDS011;39812;52.430;16.936;2023-04-12T14:29:03;2.78;;;1.35;;
53903;SDS011;39812;52.430;16.936;2023-04-12T14:31:30;2.03;;;1.42;;
53903;SDS011;39812;52.430;16.936;2023-04-12T14:33:55;2.65;;;1.40;;
53903;SDS011;39812;52.430;16.936;2023-04-12T14:36:21;4.32;;;1.95;;
53903;SDS011;39812;52.430;16.936;2023-04-12T14:38:46;2.50;;;1.63;;
53903;SDS011;39812;52.430;16.936;2023-04-12T14:41:13;3.05;;;2.10;;
53903;SDS011;39812;52.430;16.936;2023-04-12T14:43:39;3.30;;;1.95;;
53903;SDS011;39812;52.430;16.936;2023-04-12T14:46:05;2.55;;;1.88;;
53903;SDS011;39812;52.430;16.936;2023-04-12T14:48:31;4.07;;;2.30;;
53903;SDS011;39812;52.430;16.936;2023-04-12T14:50:57;3.72;;;2.15;;
53903;SDS011;39812;52.430;16.936;2023-04-12T14:53:22;3.90;;;2.20;;
53903;SDS011;39812;52.430;16.936;2023-04-12T14:55:48;2.05;;;1.70;;
53903;SDS011;39812;52.430;16.936;2023-04-12T14:58:14;3.38;;;1.92;;
53903;SDS011;39812;52.430;16.936;2023-04-12T15:00:39;3.90;;;1.90;;
53903;SDS011;39812;52.430;16.936;2023-04-12T15:03:05;2.15;;;1.40;;